Time;durP1;ratioP1;P1;durP2;ratioP2;P2;SDS_P1;SDS_P2;PMS_P1;PMS_P2;Temp;Humidity;BMP_temperature;BMP_pressure;BME280_temperature;BME280_humidity;BME280_pressure;Samples;Min_cycle;Max_cycle;Signal;HPM_P1;HPM_P2
2023/01/10 00:02:03;;;;;;;;;;;18.80;52.20;;;;;;4994636;28;20409;-53
2023/01/10 00:04:29;;;;;;;;;;;18.80;52.30;;;;;;4992727;28;20361;-53
2023/01/10 00:06:55;;;;;;;;;;;18.70;52.30;;;;;;4993037;28;19916;-53
2023/01/10 00:09:20;;;;;;;;;;;18.70;52.40;;;;;;5008759;28;20375;-53
2023/01/10 00:14:32;;;;;;;;;;;18.70;52.40;;;;;;5005406;28;20036;-53
2023/01/10 00:16:57;;;;;;;;;;;18.70;52.50;;;;;;5003280;28;20047;-52
2023/01/10 00:19:23;;;;;;;;;;;18.70;52.50;;;;;;5003048;28;20032;-53
2023/01/10 00:21:48;;;;;;;;;;;18.60;52.50;;;;;;5010136;28;19921;-53
2023/01/10 00:24:21;;;;;;;;;;;18.60;52.50;;;;;;4993169;28;20340;-53
2023/01/10 00:26:50;;;;;;;;;;;18.60;52.60;;;;;;5010247;28;19917;-53
2023/01/10 00:29:16;;;;;;;;;;;18.60;52.50;;;;;;5010844;28;19920;-53
2023/01/10 00:31:42;;;;;;;;;;;18.60;52.60;;;;;;5003264;28;19917;-54
2023/01/10 00:34:07;;;;;;;;;;;18.60;52.60;;;;;;5001776;28;19940;-52
2023/01/10 00:36:33;;;;;;;;;;;18.50;52.60;;;;;;5008259;28;19922;-52
2023/01/10 00:38:58;;;;;;;;;;;18.50;52.60;;;;;;5008954;28;19933;-54
2023/01/10 00:44:07;;;;;;;;;;;18.50;52.60;;;;;;5008604;28;19921;-54
2023/01/10 00:46:33;;;;;;;;;;;18.50;52.80;;;;;;5001312;28;20408;-54
2023/01/10 00:48:59;;;;;;;;;;;18.40;52.70;;;;;;5024258;28;20351;-52
2023/01/10 00:51:24;;;;;;;;;;;18.40;52.80;;;;;;4995399;28;20285;-55
2023/01/10 00:53:49;;;;;;;;;;;18.40;52.80;;;;;;4999602;28;19917;-52
2023/01/10 00:56:15;;;;;;;;;;;18.40;52.80;;;;;;4994848;28;19925;-53
2023/01/10 00:58:41;;;;;;;;;;;18.40;52.90;;;;;;4998100;28;19925;-52
2023/01/10 01:01:06;;;;;;;;;;;18.40;53.50;;;;;;5006007;28;19933;-53
2023/01/10 01:03:32;;;;;;;;;;;18.40;53.00;;;;;;5032178;28;20376;-53
2023/01/10 01:06:02;;;;;;;;;;;18.40;52.90;;;;;;4999722;28;19914;-53
2023/01/10 01:08:27;;;;;;;;;;;18.30;52.80;;;;;;4994917;28;20004;-53
2023/01/10 01:10:52;;;;;;;;;;;18.30;52.90;;;;;;4993254;28;20008;-53
2023/01/10 01:13:19;;;;;;;;;;;18.30;52.90;;;;;;4993419;28;20394;-53
2023/01/10 01:15:44;;;;;;;;;;;18.30;53.00;;;;;;4999814;28;19924;-53
2023/01/10 01:18:14;;;;;;;;;;;18.30;53.70;;;;;;5001590;28;20015;-53
2023/01/10 01:20:39;;;;;;;;;;;18.30;53.70;;;;;;5013801;28;19920;-53
2023/01/10 01:23:05;;;;;;;;;;;18.20;53.10;;;;;;4996258;28;20297;-53
2023/01/10 01:25:30;;;;;;;;;;;18.20;53.10;;;;;;4999126;28;19913;-53
2023/01/10 01:27:56;;;;;;;;;;;18.20;53.10;;;;;;5010386;28;19917;-53
2023/01/10 01:30:21;;;;;;;;;;;18.20;53.70;;;;;;4995704;28;19914;-53
2023/01/10 01:32:46;;;;;;;;;;;18.20;53.10;;;;;;5010726;28;19948;-53
2023/01/10 01:35:12;;;;;;;;;;;18.20;53.20;;;;;;5009242;28;19924;-52
2023/01/10 01:37:38;;;;;;;;;;;18.20;53.20;;;;;;5001387;28;19914;-52
2023/01/10 01:40:04;;;;;;;;;;;18.10;53.40;;;;;;5009465;28;19918;-53
2023/01/10 01:42:30;;;;;;;;;;;18.10;53.40;;;;;;4998238;28;19925;-53
2023/01/10 01:45:08;;;;;;;;;;;18.10;53.40;;;;;;4995830;28;19979;-52
2023/01/10 01:47:34;;;;;;;;;;;18.10;53.50;;;;;;4999487;28;19953;-53
2023/01/10 01:49:59;;;;;;;;;;;18.10;53.40;;;;;;5033280;28;20347;-53
2023/01/10 01:52:26;;;;;;;;;;;18.10;53.40;;;;;;4995796;28;19945;-53
2023/01/10 01:54:51;;;;;;;;;;;18.10;53.30;;;;;;5009217;28;19929;-53
2023/01/10 01:57:17;;;;;;;;;;;18.00;53.10;;;;;;5031353;28;19914;-53
2023/01/10 01:59:43;;;;;;;;;;;18.00;53.10;;;;;;4999033;28;19959;-52
2023/01/10 02:02:10;;;;;;;;;;;18.00;53.10;;;;;;4996003;28;20008;-53
2023/01/10 02:04:46;;;;;;;;;;;18.00;53.10;;;;;;4995211;28;20325;-53
2023/01/10 02:07:12;;;;;;;;;;;17.90;53.10;;;;;;5005007;28;19952;-53
2023/01/10 02:09:42;;;;;;;;;;;17.90;53.00;;;;;;5012220;28;19963;-52
2023/01/10 02:15:11;;;;;;;;;;;18.00;52.90;;;;;;5014520;28;19987;-53
2023/01/10 02:17:36;;;;;;;;;;;18.00;52.70;;;;;;5014002;28;19922;-52
2023/01/10 02:20:06;;;;;;;;;;;18.20;52.60;;;;;;5008724;28;19922;-53
2023/01/10 02:22:41;;;;;;;;;;;18.40;52.20;;;;;;4998598;28;19921;-53
2023/01/10 02:25:06;;;;;;;;;;;18.60;51.60;;;;;;5043020;28;19913;-53
2023/01/10 02:28:02;;;;;;;;;;;18.80;51.00;;;;;;4995879;28;22325;-53
2023/01/10 02:30:28;;;;;;;;;;;19.10;50.30;;;;;;5003991;28;19914;-52
2023/01/10 02:32:53;;;;;;;;;;;19.50;49.50;;;;;;5003488;28;19913;-52
2023/01/10 02:35:18;;;;;;;;;;;19.90;48.70;;;;;;5007694;28;19918;-52
2023/01/10 02:37:44;;;;;;;;;;;20.20;48.00;;;;;;4995159;28;19924;-52
2023/01/10 02:40:17;;;;;;;;;;;20.40;47.60;;;;;;5002674;28;20357;-53
2023/01/10 02:42:48;;;;;;;;;;;20.50;47.40;;;;;;5010604;28;20436;-52
2023/01/10 02:45:30;;;;;;;;;;;20.40;47.30;;;;;;4995700;28;20041;-52
2023/01/10 02:47:55;;;;;;;;;;;20.30;47.60;;;;;;5031828;28;19913;-52
2023/01/10 02:50:21;;;;;;;;;;;20.20;47.90;;;;;;5004071;28;19920;-52
2023/01/10 02:52:46;;;;;;;;;;;20.00;48.20;;;;;;5007218;28;19924;-53
2023/01/10 02:55:12;;;;;;;;;;;19.80;48.50;;;;;;5026011;28;19995;-52
2023/01/10 02:57:44;;;;;;;;;;;19.70;48.60;;;;;;5011805;28;19976;-52
2023/01/10 03:00:10;;;;;;;;;;;19.70;48.70;;;;;;4996688;28;20513;-52
2023/01/10 03:02:40;;;;;;;;;;;19.70;48.80;;;;;;4994645;28;20004;-53
2023/01/10 03:05:07;;;;;;;;;;;19.60;49.00;;;;;;5003870;28;20358;-53
2023/01/10 03:07:42;;;;;;;;;;;19.60;48.90;;;;;;4997781;28;19996;-53
2023/01/10 03:10:11;;;;;;;;;;;19.50;49.00;;;;;;5028202;28;19914;-53
2023/01/10 03:12:39;;;;;;;;;;;19.50;49.10;;;;;;5006537;28;19940;-53
2023/01/10 03:15:04;;;;;;;;;;;19.50;49.00;;;;;;5044537;28;20016;-53
2023/01/10 03:17:30;;;;;;;;;;;19.50;49.10;;;;;;5035119;28;20420;-53
2023/01/10 03:19:58;;;;;;;;;;;19.50;49.10;;;;;;5003492;28;20275;-52
2023/01/10 03:22:24;;;;;;;;;;;19.50;49.20;;;;;;5026024;28;20197;-52
2023/01/10 03:24:50;;;;;;;;;;;19.40;49.10;;;;;;5012663;28;19917;-53
2023/01/10 03:27:19;;;;;;;;;;;19.40;49.30;;;;;;5011470;28;20001;-55
2023/01/10 03:29:47;;;;;;;;;;;19.40;49.40;;;;;;5031778;28;19919;-51
2023/01/10 03:32:12;;;;;;;;;;;19.30;49.50;;;;;;5032845;28;20290;-53
2023/01/10 03:34:38;;;;;;;;;;;19.30;49.40;;;;;;5007943;28;19925;-52
2023/01/10 03:37:09;;;;;;;;;;;19.30;49.30;;;;;;4993788;28;19921;-52
2023/01/10 03:39:56;;;;;;;;;;;19.30;50.00;;;;;;4997845;28;20020;-53
2023/01/10 03:42:21;;;;;;;;;;;19.10;49.40;;;;;;5041206;28;20293;-53
2023/01/10 03:45:05;;;;;;;;;;;19.10;49.60;;;;;;5006054;28;19917;-52
2023/01/10 03:47:36;;;;;;;;;;;19.10;49.60;;;;;;5030295;28;20044;-54
2023/01/10 03:50:01;;;;;;;;;;;19.10;49.60;;;;;;5004501;28;20429;-54
2023/01/10 03:52:26;;;;;;;;;;;19.10;49.60;;;;;;4994500;28;20119;-52
2023/01/10 03:54:52;;;;;;;;;;;19.00;49.70;;;;;;5030149;28;20004;-52
2023/01/10 03:57:19;;;;;;;;;;;19.00;50.60;;;;;;5002342;28;19914;-52
2023/01/10 03:59:45;;;;;;;;;;;19.00;49.90;;;;;;5014929;28;19924;-53
2023/01/10 04:02:10;;;;;;;;;;;18.90;49.80;;;;;;5006625;28;19914;-53
2023/01/10 04:04:36;;;;;;;;;;;18.90;49.90;;;;;;5040234;28;20039;-53
2023/01/10 04:07:01;;;;;;;;;;;18.90;50.00;;;;;;5007370;28;20264;-53
2023/01/10 04:09:27;;;;;;;;;;;18.80;49.90;;;;;;5003560;28;19922;-53
2023/01/10 04:11:52;;;;;;;;;;;18.80;50.00;;;;;;5008847;28;19916;-53
2023/01/10 04:14:18;;;;;;;;;;;18.90;50.00;;;;;;5007565;28;19932;-53
2023/01/10 04:16:43;;;;;;;;;;;18.90;49.90;;;;;;5013021;28;19909;-53
2023/01/10 04:19:09;;;;;;;;;;;19.00;49.80;;;;;;5001160;28;19913;-53
2023/01/10 04:21:34;;;;;;;;;;;19.00;49.60;;;;;;5002544;28;19932;-53
2023/01/10 04:23:59;;;;;;;;;;;19.10;49.60;;;;;;5007640;28;19921;-53
2023/01/10 04:26:25;;;;;;;;;;;19.10;49.40;;;;;;4992651;28;19953;-53
2023/01/10 04:28:50;;;;;;;;;;;19.10;49.30;;;;;;5011259;28;19909;-53
2023/01/10 04:31:16;;;;;;;;;;;19.10;49.20;;;;;;5003034;28;20004;-52
2023/01/10 04:33:41;;;;;;;;;;;19.10;49.20;;;;;;5010745;28;19918;-53
2023/01/10 04:36:07;;;;;;;;;;;19.10;49.10;;;;;;5010590;28;19917;-52
2023/01/10 04:38:33;;;;;;;;;;;19.10;49.20;;;;;;5012850;28;19910;-52
2023/01/10 04:40:58;;;;;;;;;;;19.10;49.10;;;;;;5007464;28;19920;-54
2023/01/10 04:43:24;;;;;;;;;;;19.10;49.10;;;;;;5003540;28;20408;-54
2023/01/10 04:45:49;;;;;;;;;;;19.10;49.00;;;;;;4996982;28;19917;-55
2023/01/10 04:48:15;;;;;;;;;;;19.00;49.10;;;;;;5000111;28;20436;-54
2023/01/10 04:50:40;;;;;;;;;;;19.00;49.10;;;;;;4991623;28;20013;-54
2023/01/10 04:53:06;;;;;;;;;;;19.00;49.10;;;;;;4997614;28;20285;-54
2023/01/10 04:55:31;;;;;;;;;;;19.10;49.20;;;;;;5002737;28;19917;-54
2023/01/10 04:57:57;;;;;;;;;;;19.00;49.10;;;;;;5004904;28;20004;-53
2023/01/10 05:00:22;;;;;;;;;;;19.00;49.10;;;;;;5009679;28;19934;-52
2023/01/10 05:02:48;;;;;;;;;;;19.00;49.10;;;;;;4999737;28;20294;-54
2023/01/10 05:05:13;;;;;;;;;;;19.00;49.20;;;;;;4999222;28;19914;-54
2023/01/10 05:07:39;;;;;;;;;;;19.00;49.30;;;;;;5008976;28;19945;-54
2023/01/10 05:10:05;;;;;;;;;;;19.00;49.30;;;;;;5011725;28;19928;-54
2023/01/10 05:12:31;;;;;;;;;;;19.00;49.10;;;;;;5002692;28;20251;-54
2023/01/10 05:14:56;;;;;;;;;;;19.10;49.20;;;;;;5005326;28;19975;-55
2023/01/10 05:17:21;;;;;;;;;;;19.10;49.30;;;;;;5009532;28;19920;-54
2023/01/10 05:19:47;;;;;;;;;;;19.00;49.20;;;;;;5002276;28;20350;-54
2023/01/10 05:22:12;;;;;;;;;;;19.00;49.30;;;;;;5031433;28;20282;-54
2023/01/10 05:24:38;;;;;;;;;;;18.90;49.30;;;;;;4991782;28;19917;-55
2023/01/10 05:27:03;;;;;;;;;;;18.90;49.40;;;;;;5003930;28;20003;-53
2023/01/10 05:29:29;;;;;;;;;;;18.80;49.50;;;;;;5004309;28;19914;-53
2023/01/10 05:31:54;;;;;;;;;;;18.80;49.40;;;;;;5005908;28;19940;-53
2023/01/10 05:34:20;;;;;;;;;;;18.90;49.40;;;;;;5021832;28;19996;-52
2023/01/10 05:36:45;;;;;;;;;;;18.90;49.20;;;;;;5007485;28;20286;-52
2023/01/10 05:39:12;;;;;;;;;;;19.00;49.30;;;;;;5007514;28;19996;-52
2023/01/10 05:41:39;;;;;;;;;;;19.00;49.20;;;;;;5003646;28;19937;-55
2023/01/10 05:44:04;;;;;;;;;;;19.00;49.80;;;;;;5003745;28;19940;-53
2023/01/10 05:46:30;;;;;;;;;;;19.00;49.20;;;;;;4992099;28;19918;-54
2023/01/10 05:48:55;;;;;;;;;;;19.00;49.10;;;;;;5003879;28;20009;-54
2023/01/10 05:51:21;;;;;;;;;;;19.00;49.10;;;;;;5017150;28;19920;-52
2023/01/10 05:53:46;;;;;;;;;;;18.90;49.00;;;;;;5001110;28;19929;-52
2023/01/10 05:56:12;;;;;;;;;;;19.00;49.10;;;;;;4996013;28;19914;-53
2023/01/10 05:58:37;;;;;;;;;;;19.00;49.20;;;;;;5011742;28;20425;-53
2023/01/10 06:01:02;;;;;;;;;;;19.00;49.10;;;;;;5008095;28;20365;-53
2023/01/10 06:03:28;;;;;;;;;;;19.00;49.10;;;;;;4996872;28;20381;-53
2023/01/10 06:05:54;;;;;;;;;;;18.90;49.10;;;;;;4999867;28;19983;-53
2023/01/10 06:08:19;;;;;;;;;;;18.90;49.30;;;;;;4996508;28;19925;-53
2023/01/10 06:10:44;;;;;;;;;;;18.80;49.60;;;;;;5012191;28;19918;-53
2023/01/10 06:13:11;;;;;;;;;;;18.80;49.30;;;;;;5005034;28;19914;-52
2023/01/10 06:15:36;;;;;;;;;;;18.80;49.30;;;;;;5003548;28;19921;-53
2023/01/10 06:18:01;;;;;;;;;;;18.80;49.40;;;;;;4999995;28;19913;-53
2023/01/10 06:20:27;;;;;;;;;;;18.80;49.30;;;;;;5010727;28;19924;-52
2023/01/10 06:22:53;;;;;;;;;;;18.80;49.40;;;;;;5003692;28;20012;-53
2023/01/10 06:25:18;;;;;;;;;;;18.70;49.30;;;;;;4997952;28;19914;-52
2023/01/10 06:27:43;;;;;;;;;;;18.70;49.30;;;;;;4994672;28;20005;-53
2023/01/10 06:30:09;;;;;;;;;;;18.70;49.30;;;;;;5000017;28;19967;-54
2023/01/10 06:32:35;;;;;;;;;;;18.70;49.30;;;;;;4995928;28;19964;-52
2023/01/10 06:35:00;;;;;;;;;;;18.70;49.30;;;;;;4997914;28;20353;-53
2023/01/10 06:37:26;;;;;;;;;;;18.70;49.40;;;;;;5002703;28;19914;-52
2023/01/10 06:39:51;;;;;;;;;;;18.70;49.30;;;;;;5007269;28;19933;-53
2023/01/10 06:42:17;;;;;;;;;;;18.70;49.40;;;;;;4997787;28;20421;-54
2023/01/10 06:44:42;;;;;;;;;;;18.70;49.40;;;;;;4997654;28;20401;-54
2023/01/10 06:47:08;;;;;;;;;;;18.70;49.30;;;;;;5007335;28;19968;-53
2023/01/10 06:49:33;;;;;;;;;;;18.70;49.30;;;;;;4995147;28;19977;-52
2023/01/10 06:51:58;;;;;;;;;;;18.70;49.20;;;;;;5001032;28;19921;-52
2023/01/10 06:54:24;;;;;;;;;;;18.70;49.20;;;;;;4998558;28;19929;-53
2023/01/10 06:56:49;;;;;;;;;;;18.80;49.20;;;;;;5005971;28;19971;-52
2023/01/10 06:59:15;;;;;;;;;;;18.80;49.00;;;;;;5009246;28;19913;-52
2023/01/10 07:01:40;;;;;;;;;;;18.80;48.80;;;;;;5004697;28;19961;-54
2023/01/10 07:04:06;;;;;;;;;;;18.80;48.80;;;;;;5002113;28;19917;-52
2023/01/10 07:06:36;;;;;;;;;;;18.90;48.80;;;;;;4997033;28;20362;-52
2023/01/10 07:09:01;;;;;;;;;;;18.90;48.80;;;;;;5011651;28;19914;-52
2023/01/10 07:11:26;;;;;;;;;;;18.90;48.60;;;;;;5001045;28;19941;-52
2023/01/10 07:13:52;;;;;;;;;;;18.80;48.60;;;;;;5005823;28;20050;-52
2023/01/10 07:16:18;;;;;;;;;;;18.80;48.70;;;;;;4998924;28;19940;-52
2023/01/10 07:18:43;;;;;;;;;;;18.70;48.80;;;;;;5005505;28;19918;-53
2023/01/10 07:21:09;;;;;;;;;;;18.70;48.80;;;;;;5001882;28;19988;-52
2023/01/10 07:23:34;;;;;;;;;;;18.70;48.90;;;;;;5008718;28;19925;-52
2023/01/10 07:26:04;;;;;;;;;;;18.70;48.80;;;;;;4994972;28;19957;-53
2023/01/10 07:28:29;;;;;;;;;;;18.70;48.80;;;;;;5005859;28;19993;-53
2023/01/10 07:30:57;;;;;;;;;;;18.70;48.90;;;;;;5006465;28;19967;-53
2023/01/10 07:33:22;;;;;;;;;;;18.60;49.70;;;;;;5004360;28;20012;-52
2023/01/10 07:35:48;;;;;;;;;;;18.70;49.10;;;;;;5001578;28;20012;-53
2023/01/10 07:38:13;;;;;;;;;;;18.80;48.90;;;;;;4996406;28;19957;-53
2023/01/10 07:40:39;;;;;;;;;;;19.20;48.20;;;;;;4995725;28;20007;-53
2023/01/10 07:43:04;;;;;;;;;;;20.20;46.50;;;;;;5002777;28;19914;-53
2023/01/10 07:45:29;;;;;;;;;;;21.00;45.00;;;;;;4993285;28;20377;-54
2023/01/10 07:47:56;;;;;;;;;;;21.70;43.50;;;;;;5011232;28;19920;-55
2023/01/10 07:50:21;;;;;;;;;;;22.20;42.80;;;;;;5032621;28;20320;-54
2023/01/10 07:52:47;;;;;;;;;;;22.40;42.50;;;;;;5032955;28;19917;-52
2023/01/10 07:55:12;;;;;;;;;;;22.60;42.10;;;;;;5009555;28;19921;-53
2023/01/10 07:57:38;;;;;;;;;;;22.70;42.00;;;;;;5012725;28;19910;-53
2023/01/10 08:00:03;;;;;;;;;;;22.80;41.70;;;;;;5011469;28;19945;-53
2023/01/10 08:02:29;;;;;;;;;;;23.00;41.50;;;;;;5008251;28;19913;-53
2023/01/10 08:04:54;;;;;;;;;;;23.20;41.30;;;;;;5012199;28;20715;-53
2023/01/10 08:07:19;;;;;;;;;;;23.30;41.10;;;;;;5010873;28;20396;-54
2023/01/10 08:09:45;;;;;;;;;;;23.40;40.80;;;;;;5001697;28;20428;-53
2023/01/10 08:12:10;;;;;;;;;;;23.50;40.80;;;;;;5001350;28;20382;-53
2023/01/10 08:14:36;;;;;;;;;;;23.50;40.60;;;;;;4997457;28;19918;-53
2023/01/10 08:17:01;;;;;;;;;;;23.60;40.80;;;;;;5009793;28;19927;-53
2023/01/10 08:19:26;;;;;;;;;;;23.60;40.90;;;;;;5015955;28;19924;-53
2023/01/10 08:21:53;;;;;;;;;;;23.60;41.00;;;;;;5016459;28;19968;-54
2023/01/10 08:24:18;;;;;;;;;;;23.60;41.00;;;;;;5029150;28;19913;-54
2023/01/10 08:26:44;;;;;;;;;;;23.60;40.90;;;;;;5011389;28;20041;-54
2023/01/10 08:29:09;;;;;;;;;;;23.60;40.90;;;;;;5028730;28;19952;-55
2023/01/10 08:31:35;;;;;;;;;;;23.60;41.00;;;;;;5014879;28;19921;-55
2023/01/10 08:34:00;;;;;;;;;;;23.60;41.10;;;;;;5031959;28;19917;-53
2023/01/10 08:36:27;;;;;;;;;;;23.50;41.00;;;;;;5032226;28;19910;-54
2023/01/10 08:38:56;;;;;;;;;;;23.60;41.20;;;;;;5015036;28;19972;-54
2023/01/10 08:41:21;;;;;;;;;;;23.60;41.20;;;;;;5011260;28;20020;-54
2023/01/10 08:43:50;;;;;;;;;;;23.50;41.20;;;;;;5007745;28;20008;-54
2023/01/10 08:46:16;;;;;;;;;;;23.50;41.20;;;;;;4997860;28;19944;-54
2023/01/10 08:48:41;;;;;;;;;;;23.50;42.00;;;;;;5009804;28;19914;-54
2023/01/10 08:51:07;;;;;;;;;;;23.50;41.30;;;;;;5012189;28;19914;-54
2023/01/10 08:53:33;;;;;;;;;;;23.50;41.30;;;;;;5011863;28;19968;-54
2023/01/10 08:55:58;;;;;;;;;;;23.50;41.30;;;;;;5015297;28;19913;-54
2023/01/10 08:58:24;;;;;;;;;;;23.50;41.30;;;;;;5018983;28;19971;-54
2023/01/10 09:00:50;;;;;;;;;;;23.60;41.30;;;;;;5029147;28;19925;-54
2023/01/10 09:03:15;;;;;;;;;;;23.70;41.30;;;;;;5012483;28;19920;-54
2023/01/10 09:05:41;;;;;;;;;;;23.70;41.20;;;;;;5004370;28;20012;-54
2023/01/10 09:08:06;;;;;;;;;;;23.70;40.90;;;;;;5010508;28;19915;-54
2023/01/10 09:10:31;;;;;;;;;;;23.80;40.80;;;;;;5023511;28;19921;-54
2023/01/10 09:12:58;;;;;;;;;;;23.80;40.80;;;;;;5004003;28;19917;-54
2023/01/10 09:15:33;;;;;;;;;;;23.80;40.80;;;;;;4992626;28;20281;-54
2023/01/10 09:17:59;;;;;;;;;;;23.80;40.80;;;;;;4993363;28;19914;-54
2023/01/10 09:20:25;;;;;;;;;;;23.80;40.60;;;;;;5019995;28;19953;-54
2023/01/10 09:22:51;;;;;;;;;;;23.80;40.60;;;;;;5016478;28;19969;-54
2023/01/10 09:25:16;;;;;;;;;;;23.80;40.60;;;;;;5010119;28;19914;-54
2023/01/10 09:27:41;;;;;;;;;;;23.80;40.70;;;;;;5005842;28;20516;-54
2023/01/10 09:30:07;;;;;;;;;;;23.80;41.60;;;;;;5026201;28;20330;-54
2023/01/10 09:32:33;;;;;;;;;;;23.80;41.00;;;;;;5020426;28;19921;-55
2023/01/10 09:34:58;;;;;;;;;;;23.80;41.10;;;;;;5001918;28;19961;-55
2023/01/10 09:37:23;;;;;;;;;;;23.80;41.10;;;;;;4996080;28;20376;-55
2023/01/10 09:39:51;;;;;;;;;;;23.80;41.10;;;;;;5008598;28;20356;-55
2023/01/10 09:42:35;;;;;;;;;;;23.80;41.30;;;;;;5002765;28;20024;-54
2023/01/10 09:45:10;;;;;;;;;;;23.80;41.20;;;;;;5025097;28;19913;-54
2023/01/10 09:47:40;;;;;;;;;;;23.80;41.20;;;;;;5013115;28;19921;-54
2023/01/10 09:50:18;;;;;;;;;;;23.80;41.30;;;;;;5011274;28;19915;-54
2023/01/10 09:52:47;;;;;;;;;;;23.80;41.30;;;;;;5047878;28;19964;-54
2023/01/10 09:55:22;;;;;;;;;;;23.70;41.30;;;;;;5012936;28;19936;-54
2023/01/10 09:57:47;;;;;;;;;;;23.70;41.30;;;;;;5009256;28;19925;-54
2023/01/10 10:00:16;;;;;;;;;;;23.70;41.30;;;;;;5012950;28;19913;-54
2023/01/10 10:02:43;;;;;;;;;;;23.70;41.30;;;;;;5041500;28;19936;-54
2023/01/10 10:05:19;;;;;;;;;;;23.70;41.40;;;;;;5014089;28;19936;-54
2023/01/10 10:07:44;;;;;;;;;;;23.60;41.50;;;;;;5013813;28;20358;-54
2023/01/10 10:10:11;;;;;;;;;;;23.60;41.60;;;;;;5016687;28;19917;-54
2023/01/10 10:12:47;;;;;;;;;;;23.60;41.60;;;;;;5012420;28;19913;-54
2023/01/10 10:15:31;;;;;;;;;;;23.60;41.60;;;;;;5012275;28;19999;-53
2023/01/10 10:18:02;;;;;;;;;;;23.60;41.50;;;;;;5012774;28;19944;-53
2023/01/10 10:20:27;;;;;;;;;;;23.70;41.40;;;;;;5012000;28;19914;-53
2023/01/10 10:22:59;;;;;;;;;;;23.60;41.50;;;;;;5009745;28;19947;-54
2023/01/10 10:25:33;;;;;;;;;;;23.50;41.70;;;;;;5013413;28;19916;-54
2023/01/10 10:28:05;;;;;;;;;;;23.30;41.80;;;;;;5013901;28;19996;-53
2023/01/10 10:30:36;;;;;;;;;;;23.30;41.90;;;;;;5013720;28;20447;-53
2023/01/10 10:33:05;;;;;;;;;;;23.30;41.90;;;;;;5012983;28;20385;-55
2023/01/10 10:35:38;;;;;;;;;;;23.40;41.70;;;;;;5013128;28;19921;-55
2023/01/10 10:38:09;;;;;;;;;;;23.50;41.60;;;;;;5013371;28;20381;-53
2023/01/10 10:40:36;;;;;;;;;;;23.60;41.30;;;;;;5008947;28;19914;-54
2023/01/10 10:43:10;;;;;;;;;;;23.70;41.20;;;;;;5019727;28;19920;-53
2023/01/10 10:46:05;;;;;;;;;;;23.60;41.40;;;;;;5005757;28;19914;-53
2023/01/10 10:48:47;;;;;;;;;;;23.40;41.60;;;;;;5012090;28;19970;-53
2023/01/10 10:51:16;;;;;;;;;;;23.40;41.80;;;;;;5009450;28;20245;-53
2023/01/10 10:53:41;;;;;;;;;;;23.40;41.70;;;;;;5028210;28;19952;-54
2023/01/10 10:56:09;;;;;;;;;;;23.50;41.40;;;;;;5025483;28;20401;-53
2023/01/10 10:58:35;;;;;;;;;;;23.60;41.30;;;;;;4994788;28;20369;-53
2023/01/10 11:01:00;;;;;;;;;;;23.70;41.10;;;;;;4994921;28;19917;-53
2023/01/10 11:03:27;;;;;;;;;;;23.80;40.90;;;;;;4994498;28;20009;-54
2023/01/10 11:05:53;;;;;;;;;;;23.90;40.90;;;;;;5033265;28;20419;-53
2023/01/10 11:08:20;;;;;;;;;;;23.80;40.90;;;;;;5022519;28;19913;-54
2023/01/10 11:10:49;;;;;;;;;;;23.70;41.00;;;;;;5013686;28;19914;-54
2023/01/10 11:13:29;;;;;;;;;;;23.70;41.10;;;;;;5014168;28;20333;-54
2023/01/10 11:15:55;;;;;;;;;;;23.70;41.00;;;;;;5008335;28;19921;-54
2023/01/10 11:18:22;;;;;;;;;;;23.80;41.00;;;;;;4994696;28;19989;-54
2023/01/10 11:20:57;;;;;;;;;;;23.80;40.80;;;;;;5016251;28;19917;-53
2023/01/10 11:23:25;;;;;;;;;;;23.80;40.80;;;;;;5028415;28;19928;-53
2023/01/10 11:25:50;;;;;;;;;;;23.90;40.90;;;;;;5013080;28;19917;-53
2023/01/10 11:28:17;;;;;;;;;;;24.00;40.90;;;;;;5013868;28;19910;-53
2023/01/10 11:30:45;;;;;;;;;;;24.00;40.90;;;;;;5014117;28;20000;-54
2023/01/10 11:33:16;;;;;;;;;;;24.00;40.90;;;;;;5014757;28;19921;-55
2023/01/10 11:35:47;;;;;;;;;;;24.00;40.90;;;;;;5012919;28;19922;-53
2023/01/10 11:38:15;;;;;;;;;;;24.00;41.00;;;;;;5011785;28;19996;-53
2023/01/10 11:40:51;;;;;;;;;;;24.00;40.90;;;;;;5006283;28;19924;-54
2023/01/10 11:43:27;;;;;;;;;;;24.00;40.90;;;;;;5008721;28;20318;-56
2023/01/10 11:45:54;;;;;;;;;;;24.00;41.00;;;;;;5009032;28;19909;-54
2023/01/10 11:48:23;;;;;;;;;;;24.00;41.00;;;;;;5011231;28;20289;-54
2023/01/10 11:50:49;;;;;;;;;;;24.00;40.90;;;;;;5011985;28;19916;-54
2023/01/10 11:53:27;;;;;;;;;;;24.00;41.00;;;;;;5010852;28;20647;-54
2023/01/10 11:55:52;;;;;;;;;;;24.00;41.00;;;;;;5012910;28;20397;-55
2023/01/10 11:58:18;;;;;;;;;;;24.00;41.00;;;;;;5017166;28;19924;-53
2023/01/10 12:00:44;;;;;;;;;;;24.00;41.00;;;;;;5032854;28;20365;-53
2023/01/10 12:03:42;;;;;;;;;;;23.90;41.10;;;;;;5017905;28;20354;-53
2023/01/10 12:06:08;;;;;;;;;;;23.90;41.20;;;;;;5000583;28;19921;-53
2023/01/10 12:08:35;;;;;;;;;;;23.80;41.40;;;;;;5011946;28;19916;-53
2023/01/10 12:11:05;;;;;;;;;;;23.80;41.40;;;;;;5012859;28;19914;-53
2023/01/10 12:13:42;;;;;;;;;;;23.80;41.40;;;;;;5022441;28;20030;-53
2023/01/10 12:16:14;;;;;;;;;;;23.90;41.20;;;;;;5013241;28;20410;-54
2023/01/10 12:18:40;;;;;;;;;;;24.00;41.20;;;;;;5011934;28;19913;-52
2023/01/10 12:21:05;;;;;;;;;;;24.00;41.00;;;;;;5027086;28;19914;-55
2023/01/10 12:23:33;;;;;;;;;;;24.10;41.00;;;;;;5007275;28;19921;-55
2023/01/10 12:25:59;;;;;;;;;;;24.10;41.00;;;;;;5002080;28;19955;-53
2023/01/10 12:28:26;;;;;;;;;;;24.00;41.10;;;;;;5005913;28;19918;-54
2023/01/10 12:30:53;;;;;;;;;;;23.90;41.10;;;;;;4996045;28;19914;-54
2023/01/10 12:33:20;;;;;;;;;;;24.00;41.20;;;;;;4997486;28;19913;-53
2023/01/10 12:35:51;;;;;;;;;;;24.00;41.20;;;;;;5008596;28;20384;-53
2023/01/10 12:41:06;;;;;;;;;;;24.00;40.90;;;;;;5010223;28;19924;-55
2023/01/10 12:46:21;;;;;;;;;;;24.10;40.90;;;;;;4995391;28;19968;-53
2023/01/10 12:48:46;;;;;;;;;;;24.10;40.90;;;;;;5024578;28;19918;-53
2023/01/10 12:51:13;;;;;;;;;;;24.10;40.80;;;;;;5000027;28;19913;-55
2023/01/10 12:53:40;;;;;;;;;;;24.20;40.90;;;;;;5007880;28;20004;-53
2023/01/10 12:56:06;;;;;;;;;;;24.20;40.90;;;;;;5033670;28;19973;-55
2023/01/10 12:58:41;;;;;;;;;;;24.10;40.80;;;;;;5026623;28;19957;-54
2023/01/10 13:01:07;;;;;;;;;;;24.20;40.90;;;;;;4998436;28;19914;-55
2023/01/10 13:03:32;;;;;;;;;;;24.20;40.90;;;;;;5037797;28;19963;-53
2023/01/10 13:05:58;;;;;;;;;;;24.30;40.90;;;;;;5008574;28;20328;-54
2023/01/10 13:08:28;;;;;;;;;;;24.30;40.80;;;;;;5041829;28;19925;-54
2023/01/10 13:10:54;;;;;;;;;;;24.30;40.80;;;;;;5026489;28;19913;-54
2023/01/10 13:13:34;;;;;;;;;;;24.30;40.70;;;;;;5003249;28;19918;-54
2023/01/10 13:16:03;;;;;;;;;;;24.30;40.80;;;;;;5015168;28;19917;-53
2023/01/10 13:18:29;;;;;;;;;;;24.30;41.00;;;;;;5010305;28;19924;-54
2023/01/10 13:21:01;;;;;;;;;;;24.20;40.90;;;;;;5013214;28;19917;-53
2023/01/10 13:23:29;;;;;;;;;;;24.30;41.10;;;;;;5013158;28;19968;-54
2023/01/10 13:26:10;;;;;;;;;;;24.20;41.20;;;;;;5010082;28;20008;-54
2023/01/10 13:28:36;;;;;;;;;;;24.10;41.40;;;;;;5040058;28;19928;-54
2023/01/10 13:31:20;;;;;;;;;;;24.00;41.60;;;;;;5009804;28;20345;-54
2023/01/10 13:33:46;;;;;;;;;;;24.00;41.70;;;;;;5038627;28;19960;-53
2023/01/10 13:36:15;;;;;;;;;;;24.10;41.80;;;;;;5013648;28;20358;-54
2023/01/10 13:38:47;;;;;;;;;;;24.10;41.80;;;;;;5008012;28;20293;-53
2023/01/10 13:44:04;;;;;;;;;;;24.10;41.50;;;;;;5017456;28;19920;-54
2023/01/10 13:46:30;;;;;;;;;;;24.20;41.50;;;;;;5006069;28;19921;-53
2023/01/10 13:48:59;;;;;;;;;;;24.30;41.40;;;;;;4996241;28;20275;-54
2023/01/10 13:51:25;;;;;;;;;;;24.30;41.10;;;;;;5001252;28;20009;-53
2023/01/10 13:54:11;;;;;;;;;;;24.40;41.10;;;;;;5040174;28;20285;-54
2023/01/10 13:56:40;;;;;;;;;;;24.40;41.10;;;;;;5012280;28;19914;-54
2023/01/10 14:02:32;;;;;;;;;;;24.40;41.10;;;;;;5021129;28;19963;-54
2023/01/10 14:05:02;;;;;;;;;;;24.30;41.30;;;;;;5004485;28;19972;-54
2023/01/10 14:07:42;;;;;;;;;;;24.20;41.50;;;;;;5035437;28;19940;-53
2023/01/10 14:10:08;;;;;;;;;;;24.10;41.50;;;;;;5003015;28;19913;-53
2023/01/10 14:12:54;;;;;;;;;;;24.10;41.60;;;;;;5045175;28;19921;-54
2023/01/10 14:15:24;;;;;;;;;;;24.10;41.50;;;;;;5017526;28;19917;-53
2023/01/10 14:18:03;;;;;;;;;;;24.10;41.50;;;;;;5002207;28;19917;-53
2023/01/10 14:20:29;;;;;;;;;;;24.30;41.40;;;;;;5013279;28;20405;-53
2023/01/10 14:23:01;;;;;;;;;;;24.30;41.20;;;;;;5005919;28;19976;-54
2023/01/10 14:25:27;;;;;;;;;;;24.30;41.20;;;;;;5013769;28;19910;-53
2023/01/10 14:27:52;;;;;;;;;;;24.20;41.30;;;;;;5007455;28;19967;-54
2023/01/10 14:30:28;;;;;;;;;;;24.20;41.50;;;;;;5031695;28;19928;-53
2023/01/10 14:32:54;;;;;;;;;;;24.20;41.50;;;;;;5002026;28;19924;-54
2023/01/10 14:35:20;;;;;;;;;;;24.20;41.50;;;;;;5009340;28;19921;-53
2023/01/10 14:37:52;;;;;;;;;;;24.20;41.40;;;;;;5010495;28;19913;-53
2023/01/10 14:40:17;;;;;;;;;;;24.30;41.40;;;;;;5033795;28;20350;-53